Аэропорт: Домодедово. Москва

ICAO: UUDD

METAR:
2019/03/26 13:00
UUDD 261300Z 28007MPS 9999 SCT043CB 05/M02 Q1003 WS R32L R32L/CLRD95 R32R/190095 NOSIG
METAR:
2019/03/26 12:20
TAF UUDD 261054Z 2612/2718 25006G12MPS 9999 BKN015 TX07/2612Z TNM04/2703Z 
      TEMPO 2612/2615 3100 -SHRA SCT015CB 
      TEMPO 2615/2620 31007G12MPS 1200 SHSN FEW005 BKN012CB 
      BECMG 2709/2711 31006G12MPS 
      TEMPO 2711/2718 3100 -SHSN FEW006 BKN015CB